createdAt,value
2019-01-13T00:01:55.312Z,3.10
2019-01-13T00:04:21.517Z,3.10
2019-01-13T00:06:47.691Z,3.10
2019-01-13T00:09:13.933Z,3.20
2019-01-13T00:11:40.014Z,3.20
2019-01-13T00:14:06.123Z,3.20
2019-01-13T00:16:32.343Z,3.20
2019-01-13T00:18:58.464Z,3.30
2019-01-13T00:21:24.649Z,3.30
2019-01-13T00:23:50.860Z,3.30
2019-01-13T00:26:17.192Z,3.30
2019-01-13T00:28:43.385Z,3.20
2019-01-13T00:31:09.621Z,3.30
2019-01-13T00:33:35.853Z,3.30
2019-01-13T00:36:02.178Z,3.30
2019-01-13T00:38:28.247Z,3.30
2019-01-13T00:40:54.363Z,3.30
2019-01-13T00:43:20.490Z,3.30
2019-01-13T00:45:46.574Z,3.40
2019-01-13T00:48:12.694Z,3.40
2019-01-13T00:50:38.931Z,3.40
2019-01-13T00:53:05.151Z,3.40
2019-01-13T00:55:31.544Z,3.40
2019-01-13T00:57:57.634Z,3.40
2019-01-13T01:00:26.848Z,3.40
2019-01-13T01:02:52.568Z,3.40
2019-01-13T01:05:19.024Z,3.40
2019-01-13T01:07:47.931Z,3.40
2019-01-13T01:10:15.776Z,3.40
2019-01-13T01:12:41.955Z,3.50
2019-01-13T01:15:09.755Z,3.40
2019-01-13T01:17:35.874Z,3.40
2019-01-13T01:20:05.248Z,3.40
2019-01-13T01:22:31.399Z,3.40
2019-01-13T01:24:57.549Z,3.50
2019-01-13T01:27:23.752Z,3.50
2019-01-13T01:29:49.837Z,3.50
2019-01-13T01:32:15.917Z,3.50
2019-01-13T01:34:42.108Z,3.50
2019-01-13T01:37:08.216Z,3.40
2019-01-13T01:39:34.344Z,3.40
2019-01-13T01:42:00.446Z,3.40
2019-01-13T01:44:26.597Z,3.30
2019-01-13T01:46:52.709Z,3.40
2019-01-13T01:49:18.862Z,3.40
2019-01-13T01:51:44.942Z,3.50
2019-01-13T01:54:11.058Z,3.50
2019-01-13T01:56:37.178Z,3.50
2019-01-13T01:59:03.584Z,3.40
2019-01-13T02:01:29.712Z,3.50
2019-01-13T02:03:55.993Z,3.40
2019-01-13T02:06:22.251Z,3.40
2019-01-13T02:08:48.374Z,3.40
2019-01-13T02:11:14.450Z,3.50
2019-01-13T02:13:40.633Z,3.50
2019-01-13T02:16:06.784Z,3.50
2019-01-13T02:18:32.966Z,3.50
2019-01-13T02:20:59.092Z,3.50
2019-01-13T02:23:25.220Z,3.50
2019-01-13T02:25:51.430Z,3.50
2019-01-13T02:28:17.564Z,3.60
2019-01-13T02:30:49.010Z,3.60
2019-01-13T02:33:11.849Z,3.60
2019-01-13T02:35:38.046Z,3.60
2019-01-13T02:38:04.288Z,3.70
2019-01-13T02:40:30.589Z,3.70
2019-01-13T02:42:56.820Z,3.70
2019-01-13T02:45:25.317Z,3.70
2019-01-13T02:47:51.549Z,3.80
2019-01-13T02:50:17.733Z,3.80
2019-01-13T02:52:44.061Z,3.80
2019-01-13T02:55:10.498Z,3.90
2019-01-13T02:57:37.564Z,3.90
2019-01-13T03:00:07.579Z,3.90
2019-01-13T03:02:33.705Z,3.90
2019-01-13T03:04:59.946Z,3.90
2019-01-13T03:07:26.262Z,3.90
2019-01-13T03:09:52.573Z,3.90
2019-01-13T03:12:18.844Z,4.00
2019-01-13T03:14:44.995Z,4.00
2019-01-13T03:17:11.203Z,4.00
2019-01-13T03:19:37.417Z,4.00
2019-01-13T03:22:03.606Z,4.00
2019-01-13T03:24:29.755Z,4.00
2019-01-13T03:26:55.858Z,4.00
2019-01-13T03:29:21.965Z,4.00
2019-01-13T03:31:48.038Z,4.10
2019-01-13T03:34:14.240Z,4.10
2019-01-13T03:36:40.360Z,4.10
2019-01-13T03:39:06.511Z,4.10
2019-01-13T03:41:32.692Z,4.10
2019-01-13T03:43:58.837Z,4.00
2019-01-13T03:46:24.941Z,4.10
2019-01-13T03:48:51.074Z,4.10
2019-01-13T03:51:17.263Z,4.10
2019-01-13T03:53:43.372Z,4.10
2019-01-13T03:56:09.457Z,4.10
2019-01-13T03:58:35.543Z,4.10
2019-01-13T04:01:01.885Z,4.10
2019-01-13T04:03:27.993Z,4.10
2019-01-13T04:05:54.086Z,4.10
2019-01-13T04:08:20.173Z,4.10
2019-01-13T04:10:46.326Z,4.20
2019-01-13T04:13:12.487Z,4.20
2019-01-13T04:15:40.387Z,4.10
2019-01-13T04:18:06.893Z,4.10
2019-01-13T04:20:33.051Z,4.10
2019-01-13T04:22:59.357Z,4.00
2019-01-13T04:25:25.439Z,4.10
2019-01-13T04:27:51.591Z,4.10
2019-01-13T04:30:17.913Z,4.10
2019-01-13T04:32:44.191Z,4.10
2019-01-13T04:35:10.348Z,4.10
2019-01-13T04:37:36.505Z,4.10
2019-01-13T04:40:06.411Z,4.10
2019-01-13T04:42:32.556Z,4.10
2019-01-13T04:44:58.657Z,4.20
2019-01-13T04:47:24.871Z,4.10
2019-01-13T04:49:51.012Z,4.20
2019-01-13T04:52:17.186Z,4.10
2019-01-13T04:54:43.331Z,4.10
2019-01-13T04:57:09.507Z,4.10
2019-01-13T04:59:35.598Z,4.10
2019-01-13T05:02:01.723Z,4.20
2019-01-13T05:04:27.875Z,4.20
2019-01-13T05:06:54.099Z,4.10
2019-01-13T05:09:20.494Z,4.10
2019-01-13T05:11:46.756Z,4.20
2019-01-13T05:14:12.985Z,4.20
2019-01-13T05:16:39.102Z,4.20
2019-01-13T05:19:05.280Z,4.20
2019-01-13T05:21:31.390Z,4.30
2019-01-13T05:23:57.512Z,4.20
2019-01-13T05:26:23.704Z,4.20
2019-01-13T05:28:49.841Z,4.20
2019-01-13T05:31:15.975Z,4.20
2019-01-13T05:33:42.195Z,4.30
2019-01-13T05:36:08.322Z,4.30
2019-01-13T05:38:34.398Z,4.30
2019-01-13T05:41:00.538Z,4.30
2019-01-13T05:43:26.780Z,4.30
2019-01-13T05:45:52.962Z,4.30
2019-01-13T05:48:19.084Z,4.30
2019-01-13T05:50:45.176Z,4.30
2019-01-13T05:53:11.302Z,4.40
2019-01-13T05:55:37.601Z,4.30
2019-01-13T05:58:03.732Z,4.40
2019-01-13T06:00:31.770Z,4.30
2019-01-13T06:02:57.874Z,4.40
2019-01-13T06:05:24.108Z,4.40
2019-01-13T06:07:50.206Z,4.40
2019-01-13T06:10:17.946Z,4.40
2019-01-13T06:12:44.263Z,4.40
2019-01-13T06:15:13.365Z,4.40
2019-01-13T06:17:39.466Z,4.50
2019-01-13T06:20:14.502Z,4.40
2019-01-13T06:22:40.636Z,4.40
2019-01-13T06:25:07.185Z,4.50
2019-01-13T06:27:33.630Z,4.50
2019-01-13T06:29:59.774Z,4.50
2019-01-13T06:32:25.900Z,4.40
2019-01-13T06:34:51.996Z,4.40
2019-01-13T06:37:18.123Z,4.40
2019-01-13T06:39:44.252Z,4.40
2019-01-13T06:42:10.391Z,4.40
2019-01-13T06:44:36.602Z,4.40
2019-01-13T06:47:02.812Z,4.40
2019-01-13T06:49:29.170Z,4.40
2019-01-13T06:51:55.305Z,4.40
2019-01-13T06:54:21.526Z,4.40
2019-01-13T06:56:47.746Z,4.40
2019-01-13T06:59:13.878Z,4.40
2019-01-13T07:01:40.123Z,4.50
2019-01-13T07:04:06.298Z,4.40
2019-01-13T07:06:32.394Z,4.50
2019-01-13T07:08:58.535Z,4.50
2019-01-13T07:11:24.632Z,4.50
2019-01-13T07:13:50.858Z,4.50
2019-01-13T07:16:17.099Z,4.60
2019-01-13T07:18:43.296Z,4.60
2019-01-13T07:21:09.544Z,4.60
2019-01-13T07:23:35.714Z,4.60
2019-01-13T07:26:01.914Z,4.60
2019-01-13T07:28:28.048Z,4.60
2019-01-13T07:30:54.157Z,4.60
2019-01-13T07:33:20.297Z,4.60
2019-01-13T07:35:46.438Z,4.60
2019-01-13T07:38:12.524Z,4.70
2019-01-13T07:40:38.634Z,4.60
2019-01-13T07:43:04.713Z,4.70
2019-01-13T07:45:30.873Z,4.70
2019-01-13T07:47:57.076Z,4.70
2019-01-13T07:50:23.423Z,4.70
2019-01-13T07:52:49.594Z,4.70
2019-01-13T07:55:17.926Z,4.80
2019-01-13T07:57:44.473Z,4.80
2019-01-13T08:00:22.370Z,4.70
2019-01-13T08:02:48.591Z,4.80
2019-01-13T08:05:15.039Z,4.80
2019-01-13T08:07:41.349Z,4.70
2019-01-13T08:10:11.005Z,4.70
2019-01-13T08:12:37.180Z,4.80
2019-01-13T08:15:07.144Z,4.80
2019-01-13T08:17:33.266Z,4.80
2019-01-13T08:19:59.471Z,4.80
2019-01-13T08:22:25.804Z,4.80
2019-01-13T08:24:52.154Z,4.90
2019-01-13T08:27:18.441Z,4.90
2019-01-13T08:29:44.531Z,4.90
2019-01-13T08:32:10.619Z,5.00
2019-01-13T08:34:36.757Z,5.00
2019-01-13T08:37:03.439Z,5.10
2019-01-13T08:39:29.587Z,5.00
2019-01-13T08:41:55.881Z,5.10
2019-01-13T08:44:22.001Z,5.10
2019-01-13T08:46:48.129Z,5.20
2019-01-13T08:49:14.261Z,5.20
2019-01-13T08:51:40.361Z,5.10
2019-01-13T08:54:06.833Z,5.10
2019-01-13T08:56:33.053Z,5.20
2019-01-13T08:58:59.157Z,5.20
2019-01-13T09:01:25.287Z,5.20
2019-01-13T09:03:51.506Z,5.20
2019-01-13T09:06:17.588Z,5.20
2019-01-13T09:08:43.752Z,5.20
2019-01-13T09:11:10.078Z,5.30
2019-01-13T09:13:36.184Z,5.40
2019-01-13T09:16:02.590Z,5.40
2019-01-13T09:18:28.678Z,5.30
2019-01-13T09:20:54.803Z,5.30
2019-01-13T09:23:20.908Z,5.30
2019-01-13T09:25:47.138Z,5.40
2019-01-13T09:28:13.364Z,5.40
2019-01-13T09:30:39.593Z,5.40
2019-01-13T09:33:05.875Z,5.40
2019-01-13T09:35:32.229Z,5.40
2019-01-13T09:37:58.392Z,5.40
2019-01-13T09:40:27.340Z,5.40
2019-01-13T09:42:53.883Z,5.30
2019-01-13T09:45:20.092Z,5.30
2019-01-13T09:47:46.353Z,5.30
2019-01-13T09:50:15.049Z,5.30
2019-01-13T09:52:41.344Z,5.30
2019-01-13T09:55:11.006Z,5.40
2019-01-13T09:57:37.432Z,5.40
2019-01-13T10:00:13.207Z,5.90
2019-01-13T10:02:46.446Z,5.70
2019-01-13T10:05:07.728Z,5.50
2019-01-13T10:07:33.864Z,5.40
2019-01-13T10:10:00.185Z,5.40
2019-01-13T10:12:26.348Z,5.40
2019-01-13T10:14:52.484Z,5.40
2019-01-13T10:17:18.578Z,5.40
2019-01-13T10:19:44.764Z,5.50
2019-01-13T10:22:10.942Z,5.40
2019-01-13T10:24:37.034Z,5.40
2019-01-13T10:27:03.343Z,5.50
2019-01-13T10:29:29.751Z,5.40
2019-01-13T10:31:56.024Z,5.40
2019-01-13T10:34:22.516Z,5.50
2019-01-13T10:36:48.602Z,5.40
2019-01-13T10:39:14.698Z,5.40
2019-01-13T10:41:40.795Z,5.60
2019-01-13T10:44:06.868Z,5.50
2019-01-13T10:46:33.068Z,5.40
2019-01-13T10:48:59.205Z,5.40
2019-01-13T10:51:26.396Z,5.40
2019-01-13T10:53:52.672Z,5.40
2019-01-13T10:56:18.835Z,5.40
2019-01-13T10:58:45.066Z,5.40
2019-01-13T11:01:11.264Z,5.30
2019-01-13T11:03:37.370Z,5.30
2019-01-13T11:06:03.676Z,5.20
2019-01-13T11:08:29.758Z,5.30
2019-01-13T11:10:55.900Z,5.20
2019-01-13T11:13:22.090Z,5.20
2019-01-13T11:15:48.293Z,5.20
2019-01-13T11:18:14.622Z,5.20
2019-01-13T11:20:40.831Z,5.20
2019-01-13T11:23:07.548Z,5.20
2019-01-13T11:25:34.035Z,5.10
2019-01-13T11:28:00.126Z,5.10
2019-01-13T11:30:26.691Z,5.10
2019-01-13T11:32:53.063Z,5.10
2019-01-13T11:35:19.153Z,5.10
2019-01-13T11:37:45.878Z,5.10
2019-01-13T11:40:15.986Z,5.10
2019-01-13T11:42:42.781Z,5.10
2019-01-13T11:45:09.373Z,5.00
2019-01-13T11:47:35.668Z,4.90
2019-01-13T11:50:02.961Z,4.90
2019-01-13T11:52:29.100Z,4.90
2019-01-13T11:54:55.335Z,4.90
2019-01-13T11:57:21.506Z,4.80
2019-01-13T11:59:48.650Z,4.90
2019-01-13T12:02:15.164Z,4.80
2019-01-13T12:04:41.374Z,4.80
2019-01-13T12:07:07.565Z,4.80
2019-01-13T12:09:36.502Z,4.80
2019-01-13T12:12:13.638Z,4.80
2019-01-13T12:14:52.950Z,4.70
2019-01-13T12:17:26.042Z,4.70
2019-01-13T12:20:02.517Z,4.70
2019-01-13T12:22:29.692Z,4.60
2019-01-13T12:24:55.807Z,4.50
2019-01-13T12:27:21.932Z,4.40
2019-01-13T12:29:48.115Z,4.20
2019-01-13T12:32:14.379Z,4.00
2019-01-13T12:34:40.731Z,3.90
2019-01-13T12:37:08.508Z,4.00
2019-01-13T12:39:34.812Z,3.90
2019-01-13T12:42:01.037Z,4.10
2019-01-13T12:44:27.213Z,3.90
2019-01-13T12:46:53.346Z,3.80
2019-01-13T12:49:23.543Z,3.80
2019-01-13T12:51:49.897Z,3.70
2019-01-13T12:54:16.036Z,3.70
2019-01-13T12:56:42.362Z,3.60
2019-01-13T12:59:08.451Z,3.60
2019-01-13T13:01:34.569Z,3.50
2019-01-13T13:04:00.691Z,3.60
2019-01-13T13:06:26.919Z,3.60
2019-01-13T13:08:53.222Z,3.50
2019-01-13T13:11:19.305Z,3.60
2019-01-13T13:13:45.395Z,3.60
2019-01-13T13:16:11.552Z,3.60
2019-01-13T13:18:37.688Z,3.60
2019-01-13T13:21:03.886Z,3.50
2019-01-13T13:23:29.965Z,3.50
2019-01-13T13:25:56.182Z,3.60
2019-01-13T13:28:22.272Z,3.50
2019-01-13T13:30:48.561Z,3.50
2019-01-13T13:33:14.857Z,3.60
2019-01-13T13:35:41.058Z,3.70
2019-01-13T13:38:07.284Z,3.60
2019-01-13T13:40:33.566Z,3.60
2019-01-13T13:42:59.697Z,3.70
2019-01-13T13:45:25.929Z,3.70
2019-01-13T13:47:52.188Z,3.70
2019-01-13T13:50:23.805Z,3.70
2019-01-13T13:52:50.079Z,3.70
2019-01-13T13:55:16.364Z,3.70
2019-01-13T13:57:42.708Z,3.70
2019-01-13T14:00:15.251Z,3.70
2019-01-13T14:02:41.393Z,3.80
2019-01-13T14:05:08.599Z,3.80
2019-01-13T14:07:34.930Z,3.80
2019-01-13T14:10:01.215Z,3.90
2019-01-13T14:12:27.377Z,3.90
2019-01-13T14:14:53.559Z,3.90
2019-01-13T14:17:19.698Z,4.00
2019-01-13T14:19:45.945Z,4.00
2019-01-13T14:22:12.191Z,4.10
2019-01-13T14:24:38.366Z,4.30
2019-01-13T14:27:04.513Z,4.20
2019-01-13T14:29:30.726Z,4.20
2019-01-13T14:31:57.010Z,4.20
2019-01-13T14:34:23.089Z,4.20
2019-01-13T14:36:49.195Z,4.30
2019-01-13T14:39:15.301Z,4.30
2019-01-13T14:41:41.471Z,4.50
2019-01-13T14:44:07.790Z,4.50
2019-01-13T14:46:34.907Z,4.60
2019-01-13T14:49:01.212Z,4.60
2019-01-13T14:51:27.321Z,4.70
2019-01-13T14:53:53.390Z,4.70
2019-01-13T14:56:19.530Z,4.80
2019-01-13T14:58:45.636Z,4.80
2019-01-13T15:01:11.740Z,5.00
2019-01-13T15:03:37.826Z,5.10
2019-01-13T15:06:03.936Z,5.10
2019-01-13T15:08:30.057Z,5.30
2019-01-13T15:10:56.273Z,5.50
2019-01-13T15:13:22.486Z,5.60
2019-01-13T15:15:48.573Z,5.70
2019-01-13T15:18:14.811Z,5.80
2019-01-13T15:20:40.929Z,5.80
2019-01-13T15:23:07.130Z,5.90
2019-01-13T15:25:33.312Z,5.90
2019-01-13T15:27:59.508Z,5.90
2019-01-13T15:30:31.163Z,6.00
2019-01-13T15:32:57.718Z,6.00
2019-01-13T15:35:24.342Z,6.00
2019-01-13T15:37:50.639Z,6.10
2019-01-13T15:40:18.861Z,6.10
2019-01-13T15:42:45.294Z,6.10
2019-01-13T15:45:13.434Z,6.10
2019-01-13T15:47:39.885Z,6.10
2019-01-13T15:50:21.856Z,6.10
2019-01-13T15:52:48.954Z,6.20
2019-01-13T15:55:15.633Z,6.20
2019-01-13T15:57:41.927Z,6.20
2019-01-13T16:00:14.102Z,6.20
2019-01-13T16:02:40.322Z,6.20
2019-01-13T16:05:06.646Z,6.30
2019-01-13T16:07:32.849Z,6.30
2019-01-13T16:09:58.977Z,6.30
2019-01-13T16:12:25.190Z,6.40
2019-01-13T16:14:51.361Z,6.40
2019-01-13T16:17:17.668Z,6.30
2019-01-13T16:19:43.887Z,6.40
2019-01-13T16:22:10.278Z,6.40
2019-01-13T16:24:36.448Z,6.50
2019-01-13T16:27:03.074Z,6.50
2019-01-13T16:29:29.225Z,6.50
2019-01-13T16:31:55.511Z,6.50
2019-01-13T16:34:21.754Z,6.60
2019-01-13T16:36:48.023Z,6.60
2019-01-13T16:39:14.161Z,6.60
2019-01-13T16:41:40.265Z,6.60
2019-01-13T16:44:06.517Z,6.70
2019-01-13T16:46:32.746Z,6.70
2019-01-13T16:48:59.062Z,6.70
2019-01-13T16:51:25.416Z,6.70
2019-01-13T16:53:51.608Z,6.70
2019-01-13T16:56:17.700Z,6.70
2019-01-13T16:58:43.796Z,6.80
2019-01-13T17:01:09.976Z,6.80
2019-01-13T17:03:36.200Z,6.80
2019-01-13T17:06:02.804Z,6.80
2019-01-13T17:08:29.057Z,6.80
2019-01-13T17:10:55.388Z,6.80
2019-01-13T17:13:21.502Z,6.80
2019-01-13T17:15:47.667Z,6.80
2019-01-13T17:18:13.941Z,6.80
2019-01-13T17:20:40.065Z,6.80
2019-01-13T17:23:06.514Z,6.80
2019-01-13T17:25:32.787Z,6.80
2019-01-13T17:27:58.895Z,6.80
2019-01-13T17:30:27.112Z,6.80
2019-01-13T17:32:53.366Z,6.70
2019-01-13T17:35:19.694Z,6.70
2019-01-13T17:37:46.087Z,6.80
2019-01-13T17:40:15.627Z,6.80
2019-01-13T17:42:41.885Z,6.80
2019-01-13T17:45:17.814Z,6.80
2019-01-13T17:47:44.761Z,6.80
2019-01-13T17:50:13.457Z,6.80
2019-01-13T17:52:39.701Z,6.80
2019-01-13T17:55:09.721Z,6.80
2019-01-13T17:57:35.872Z,6.80
2019-01-13T18:00:04.862Z,6.80
2019-01-13T18:02:30.949Z,6.80
2019-01-13T18:04:57.089Z,6.80
2019-01-13T18:07:23.322Z,6.80
2019-01-13T18:09:49.417Z,6.80
2019-01-13T18:12:15.512Z,6.80
2019-01-13T18:14:41.709Z,6.80
2019-01-13T18:17:07.893Z,6.80
2019-01-13T18:19:34.072Z,6.80
2019-01-13T18:22:00.176Z,6.90
2019-01-13T18:24:26.267Z,6.90
2019-01-13T18:26:52.472Z,6.90
2019-01-13T18:29:19.001Z,6.90
2019-01-13T18:31:45.193Z,7.50
2019-01-13T18:34:11.392Z,7.20
2019-01-13T18:36:37.578Z,7.10
2019-01-13T18:39:05.778Z,7.00
2019-01-13T18:41:31.957Z,7.00
2019-01-13T18:43:58.178Z,7.00
2019-01-13T18:46:24.369Z,7.00
2019-01-13T18:48:50.447Z,7.00
2019-01-13T18:51:16.652Z,7.00
2019-01-13T18:53:42.737Z,7.00
2019-01-13T18:56:08.978Z,7.00
2019-01-13T18:58:35.229Z,7.00
2019-01-13T19:01:01.530Z,7.10
2019-01-13T19:03:28.185Z,7.10
2019-01-13T19:05:54.467Z,7.00
2019-01-13T19:08:20.574Z,7.00
2019-01-13T19:10:53.536Z,7.10
2019-01-13T19:13:38.684Z,7.00
2019-01-13T19:16:06.113Z,7.00
2019-01-13T19:18:32.332Z,7.10
2019-01-13T19:20:58.428Z,7.10
2019-01-13T19:23:26.385Z,7.10
2019-01-13T19:25:52.614Z,7.10
2019-01-13T19:28:18.847Z,7.10
2019-01-13T19:30:44.968Z,7.10
2019-01-13T19:33:11.221Z,7.10
2019-01-13T19:35:37.498Z,7.10
2019-01-13T19:38:03.793Z,7.10
2019-01-13T19:40:29.909Z,7.10
2019-01-13T19:42:56.078Z,7.20
2019-01-13T19:45:22.543Z,7.10
2019-01-13T19:47:48.711Z,7.10
2019-01-13T19:50:21.251Z,7.10
2019-01-13T19:52:47.555Z,7.20
2019-01-13T19:55:15.302Z,7.20
2019-01-13T19:57:41.910Z,7.20
2019-01-13T20:00:11.922Z,7.20
2019-01-13T20:02:38.161Z,7.10
2019-01-13T20:05:11.633Z,7.20
2019-01-13T20:07:32.664Z,7.20
2019-01-13T20:09:58.886Z,7.10
2019-01-13T20:12:24.986Z,7.10
2019-01-13T20:14:51.189Z,7.00
2019-01-13T20:17:17.597Z,7.00
2019-01-13T20:19:43.808Z,7.00
2019-01-13T20:22:10.089Z,7.00
2019-01-13T20:24:36.343Z,6.90
2019-01-13T20:27:02.555Z,6.90
2019-01-13T20:29:28.982Z,6.90
2019-01-13T20:31:55.382Z,6.90
2019-01-13T20:34:21.556Z,6.90
2019-01-13T20:36:47.651Z,6.80
2019-01-13T20:39:13.805Z,6.80
2019-01-13T20:41:40.005Z,6.80
2019-01-13T20:44:06.412Z,6.80
2019-01-13T20:46:32.563Z,6.80
2019-01-13T20:48:58.783Z,6.80
2019-01-13T20:51:25.177Z,6.80
2019-01-13T20:53:51.331Z,6.90
2019-01-13T20:56:17.531Z,6.90
2019-01-13T20:58:43.702Z,6.80
2019-01-13T21:01:09.844Z,6.80
2019-01-13T21:03:35.945Z,6.80
2019-01-13T21:06:02.220Z,6.80
2019-01-13T21:08:28.324Z,6.80
2019-01-13T21:10:54.656Z,6.80
2019-01-13T21:13:20.843Z,6.90
2019-01-13T21:15:46.956Z,6.90
2019-01-13T21:18:13.104Z,6.90
2019-01-13T21:20:39.204Z,6.80
2019-01-13T21:23:05.449Z,6.90
2019-01-13T21:25:31.781Z,6.90
2019-01-13T21:27:59.179Z,6.80
2019-01-13T21:30:30.501Z,6.90
2019-01-13T21:32:57.020Z,6.90
2019-01-13T21:35:23.485Z,6.90
2019-01-13T21:37:50.114Z,7.00
2019-01-13T21:40:16.302Z,6.90
2019-01-13T21:42:42.862Z,6.90
2019-01-13T21:45:12.378Z,6.90
2019-01-13T21:47:38.527Z,6.80
2019-01-13T21:50:08.522Z,6.80
2019-01-13T21:52:34.603Z,6.80
2019-01-13T21:55:00.764Z,6.70
2019-01-13T21:57:27.150Z,6.60
2019-01-13T21:59:53.529Z,6.50
2019-01-13T22:02:19.711Z,6.40
2019-01-13T22:04:45.848Z,6.30
2019-01-13T22:07:12.059Z,6.30
2019-01-13T22:09:38.177Z,6.20
2019-01-13T22:12:04.591Z,6.30
2019-01-13T22:14:30.674Z,6.20
2019-01-13T22:16:56.774Z,6.20
2019-01-13T22:19:23.094Z,6.20
2019-01-13T22:21:49.192Z,6.10
2019-01-13T22:24:15.448Z,6.10
2019-01-13T22:26:41.672Z,6.00
2019-01-13T22:29:07.908Z,6.00
2019-01-13T22:31:34.127Z,6.00
2019-01-13T22:34:00.296Z,6.00
2019-01-13T22:36:26.486Z,5.90
2019-01-13T22:38:52.650Z,5.90
2019-01-13T22:41:18.832Z,5.90
2019-01-13T22:43:44.956Z,5.80
2019-01-13T22:46:11.087Z,5.80
2019-01-13T22:48:37.292Z,5.90
2019-01-13T22:51:03.629Z,5.80
2019-01-13T22:53:29.838Z,5.80
2019-01-13T22:55:55.931Z,5.80
2019-01-13T22:58:22.080Z,5.90
2019-01-13T23:00:54.245Z,5.90
2019-01-13T23:03:20.352Z,5.90
2019-01-13T23:05:46.472Z,5.90
2019-01-13T23:08:12.790Z,5.90
2019-01-13T23:10:38.911Z,5.90
2019-01-13T23:13:05.253Z,5.80
2019-01-13T23:15:31.443Z,5.80
2019-01-13T23:17:57.544Z,5.80
2019-01-13T23:20:23.615Z,5.80
2019-01-13T23:22:49.717Z,5.80
2019-01-13T23:25:15.829Z,5.80
2019-01-13T23:27:41.919Z,5.70
2019-01-13T23:30:08.664Z,5.70
2019-01-13T23:32:34.843Z,5.70
2019-01-13T23:35:00.935Z,5.70
2019-01-13T23:37:27.050Z,5.70
2019-01-13T23:39:53.130Z,5.80
2019-01-13T23:42:19.233Z,5.80
2019-01-13T23:44:45.319Z,5.80
2019-01-13T23:47:11.394Z,5.80
2019-01-13T23:49:37.516Z,5.90
2019-01-13T23:52:03.675Z,5.90
2019-01-13T23:54:29.801Z,5.90
2019-01-13T23:56:56.052Z,5.90
2019-01-13T23:59:22.210Z,5.90
